Time;durP1;ratioP1;P1;durP2;ratioP2;P2;SDS_P1;SDS_P2;PMS_P1;PMS_P2;Temp;Humidity;BMP_temperature;BMP_pressure;BME280_temperature;BME280_humidity;BME280_pressure;Samples;Min_cycle;Max_cycle;Signal;HPM_P1;HPM_P2
2021/09/23 00:00:57;;;;;;;6.60;4.03;;;;;;;;;;5040947;28;20514;-82
2021/09/23 00:05:57;;;;;;;7.30;3.80;;;11.70;99.90;;;;;;5034498;28;20025;-79
2021/09/23 00:08:23;;;;;;;8.02;3.97;;;;;;;;;;5046461;28;20040;-79
2021/09/23 00:10:49;;;;;;;6.72;3.58;;;;;;;;;;5039130;28;20025;-78
2021/09/23 00:13:16;;;;;;;7.20;3.72;;;;;;;;;;5049179;28;20577;-80
2021/09/23 00:15:42;;;;;;;10.82;3.78;;;;;;;;;;5042282;28;20044;-80
2021/09/23 00:18:12;;;;;;;6.22;3.67;;;11.60;99.90;;;;;;5051727;28;20393;-79
2021/09/23 00:20:41;;;;;;;8.73;3.67;;;11.40;99.90;;;;;;5051810;28;20021;-80
2021/09/23 00:23:09;;;;;;;5.43;3.60;;;11.50;99.90;;;;;;5049117;28;20087;-78
2021/09/23 00:25:36;;;;;;;5.90;3.40;;;11.40;99.90;;;;;;5047955;28;20083;-80
2021/09/23 00:28:03;;;;;;;5.65;3.80;;;;;;;;;;5051007;28;20044;-79
2021/09/23 00:30:29;;;;;;;7.28;3.42;;;;;;;;;;5046966;28;20061;-80
2021/09/23 00:32:56;;;;;;;5.47;3.53;;;;;;;;;;5048835;28;20578;-79
2021/09/23 00:35:22;;;;;;;6.28;3.53;;;;;;;;;;5046120;28;20048;-80
2021/09/23 00:37:48;;;;;;;8.45;4.18;;;;;;;;;;5053654;28;20053;-79
2021/09/23 00:40:16;;;;;;;5.35;3.47;;;11.40;99.90;;;;;;5047844;28;20136;-77
2021/09/23 00:42:43;;;;;;;5.93;3.78;;;;;;;;;;5041713;28;20033;-80
2021/09/23 00:45:10;;;;;;;6.22;3.90;;;11.30;99.90;;;;;;5047227;28;20052;-77
2021/09/23 00:47:37;;;;;;;6.43;3.85;;;;;;;;;;5046585;28;20049;-78
2021/09/23 00:50:04;;;;;;;7.07;4.20;;;11.40;99.90;;;;;;5052137;28;20021;-80
2021/09/23 00:52:31;;;;;;;6.53;3.55;;;;;;;;;;5047517;28;20021;-81
2021/09/23 00:54:57;;;;;;;6.10;3.45;;;11.30;99.90;;;;;;5047176;28;20111;-80
2021/09/23 00:57:24;;;;;;;5.00;3.28;;;11.40;99.90;;;;;;5045574;28;20025;-77
2021/09/23 00:59:55;;;;;;;6.60;3.83;;;11.20;99.90;;;;;;5046432;28;20528;-78
2021/09/23 01:02:22;;;;;;;8.68;3.42;;;11.20;99.90;;;;;;5050579;28;20057;-79
2021/09/23 01:04:48;;;;;;;8.38;4.03;;;;;;;;;;5045259;28;20427;-78
2021/09/23 01:07:16;;;;;;;8.57;3.85;;;11.20;99.90;;;;;;5048188;28;20017;-79
2021/09/23 01:09:53;;;;;;;5.97;3.53;;;11.20;99.90;;;;;;5052992;28;20488;-78
2021/09/23 01:12:21;;;;;;;6.45;3.40;;;11.20;99.90;;;;;;5052922;28;20026;-79
2021/09/23 01:14:47;;;;;;;10.27;4.10;;;11.70;99.90;;;;;;5043257;28;20071;-79
2021/09/23 01:17:13;;;;;;;6.43;3.80;;;;;;;;;;5046655;28;20030;-80
2021/09/23 01:19:41;;;;;;;8.45;4.20;;;11.10;99.90;;;;;;5039826;28;20048;-80
2021/09/23 01:22:07;;;;;;;6.97;4.03;;;11.10;99.90;;;;;;5044939;28;20040;-78
2021/09/23 01:24:33;;;;;;;6.80;3.80;;;;;;;;;;5047513;28;20067;-79
2021/09/23 01:27:00;;;;;;;6.20;4.00;;;;;;;;;;5048327;28;20478;-80
2021/09/23 01:29:26;;;;;;;7.00;3.95;;;11.00;99.90;;;;;;5052391;28;20017;-79
2021/09/23 01:31:52;;;;;;;8.02;3.97;;;;;;;;;;5048195;28;20052;-82
2021/09/23 01:34:19;;;;;;;6.78;3.83;;;;;;;;;;5050061;28;20119;-80
2021/09/23 01:36:45;;;;;;;6.28;3.60;;;;;;;;;;5046055;28;20029;-78
2021/09/23 01:39:11;;;;;;;5.60;3.85;;;;;;;;;;5043222;28;20448;-78
2021/09/23 01:41:37;;;;;;;8.23;4.22;;;;;;;;;;5044440;28;20425;-80
2021/09/23 01:44:03;;;;;;;8.50;4.20;;;;;;;;;;5045311;28;20040;-80
2021/09/23 01:46:29;;;;;;;6.50;4.18;;;;;;;;;;5038813;28;20113;-79
2021/09/23 01:48:55;;;;;;;8.25;4.07;;;;;;;;;;5043863;28;20060;-79
2021/09/23 01:51:21;;;;;;;5.65;3.40;;;;;;;;;;5037521;28;20085;-79
2021/09/23 01:53:47;;;;;;;10.93;4.30;;;;;;;;;;5050328;28;20025;-79
2021/09/23 01:56:13;;;;;;;6.65;3.80;;;;;;;;;;5048317;28;20021;-80
2021/09/23 01:58:38;;;;;;;6.10;3.97;;;;;;;;;;5051214;28;20024;-79
2021/09/23 02:01:04;;;;;;;7.68;3.75;;;;;;;;;;5046267;28;20029;-82
2021/09/23 02:03:31;;;;;;;7.05;3.92;;;;;;;;;;5048845;28;20021;-77
2021/09/23 02:05:57;;;;;;;8.25;4.00;;;;;;;;;;5050091;28;20033;-79
2021/09/23 02:08:23;;;;;;;6.85;3.85;;;;;;;;;;5047598;28;20021;-78
2021/09/23 02:10:49;;;;;;;7.63;3.97;;;;;;;;;;5054205;28;20036;-77
2021/09/23 02:13:15;;;;;;;10.80;3.58;;;;;;;;;;5059837;28;20075;-79
2021/09/23 02:15:40;;;;;;;6.82;3.58;;;;;;;;;;5063368;28;20031;-78
2021/09/23 02:18:06;;;;;;;8.70;4.18;;;;;;;;;;5036738;28;20032;-80
2021/09/23 02:20:32;;;;;;;8.50;4.22;;;;;;;;;;5048849;28;20025;-79
2021/09/23 02:22:59;;;;;;;6.15;3.67;;;;;;;;;;5042829;28;20032;-79
2021/09/23 02:25:25;;;;;;;7.75;3.90;;;;;;;;;;5039620;28;20072;-79
2021/09/23 02:27:51;;;;;;;6.70;3.78;;;;;;;;;;5035656;28;20432;-80
2021/09/23 02:30:16;;;;;;;7.38;4.32;;;;;;;;;;5031529;28;21505;-78
2021/09/23 02:32:42;;;;;;;8.70;3.30;;;;;;;;;;5031371;28;20029;-78
2021/09/23 02:35:09;;;;;;;6.85;4.10;;;10.70;99.90;;;;;;5035059;28;22265;-79
2021/09/23 02:37:36;;;;;;;8.05;3.75;;;10.70;99.90;;;;;;5035460;28;20040;-79
2021/09/23 02:40:02;;;;;;;8.32;3.60;;;;;;;;;;5043871;28;20114;-81
2021/09/23 02:42:28;;;;;;;8.50;3.50;;;;;;;;;;5039440;28;20029;-80
2021/09/23 02:44:54;;;;;;;6.07;3.42;;;;;;;;;;5028115;28;20095;-79
2021/09/23 02:47:22;;;;;;;6.40;3.67;;;;;;;;;;5034662;28;20565;-81
2021/09/23 02:49:51;;;;;;;7.22;3.97;;;10.30;99.90;;;;;;5033034;28;20025;-80
2021/09/23 02:52:17;;;;;;;7.88;4.50;;;10.30;99.90;;;;;;5045851;28;20021;-79
2021/09/23 02:54:43;;;;;;;5.60;3.75;;;;;;;;;;5045241;28;20039;-79
2021/09/23 02:57:09;;;;;;;8.50;4.13;;;;;;;;;;5050406;28;20086;-79
2021/09/23 02:59:35;;;;;;;7.90;4.32;;;;;;;;;;5043869;28;20029;-80
2021/09/23 03:02:01;;;;;;;6.63;3.90;;;;;;;;;;5039490;28;20037;-81
2021/09/23 03:04:27;;;;;;;9.90;4.30;;;;;;;;;;5033550;28;20052;-81
2021/09/23 03:06:53;;;;;;;5.85;3.60;;;;;;;;;;5047278;28;20068;-79
2021/09/23 03:09:19;;;;;;;7.03;3.58;;;;;;;;;;5043163;28;20017;-79
2021/09/23 03:11:45;;;;;;;6.70;4.15;;;;;;;;;;5047791;28;20059;-77
2021/09/23 03:14:12;;;;;;;8.27;4.57;;;;;;;;;;5044310;28;20036;-79
2021/09/23 03:16:38;;;;;;;6.65;3.63;;;;;;;;;;5044577;28;20075;-78
2021/09/23 03:19:04;;;;;;;8.05;4.18;;;;;;;;;;5040012;28;20430;-78
2021/09/23 03:21:30;;;;;;;7.93;4.53;;;;;;;;;;5039436;28;20086;-80
2021/09/23 03:23:56;;;;;;;9.13;4.60;;;;;;;;;;5036212;28;20132;-78
2021/09/23 03:26:22;;;;;;;8.00;4.05;;;;;;;;;;5029990;28;20028;-78
2021/09/23 03:28:48;;;;;;;9.23;4.03;;;;;;;;;;5029838;28;20405;-80
2021/09/23 03:31:14;;;;;;;6.40;3.85;;;;;;;;;;5030579;28;20095;-78
2021/09/23 03:33:40;;;;;;;7.93;4.00;;;;;;;;;;5030832;28;20486;-80
2021/09/23 03:36:06;;;;;;;9.68;4.57;;;;;;;;;;5027341;28;20086;-80
2021/09/23 03:38:32;;;;;;;10.30;4.10;;;;;;;;;;5034713;28;20036;-79
2021/09/23 03:40:58;;;;;;;8.75;4.05;;;;;;;;;;5039921;28;20041;-78
2021/09/23 03:43:24;;;;;;;7.88;4.47;;;;;;;;;;5029553;28;20040;-81
2021/09/23 03:45:51;;;;;;;6.30;3.97;;;;;;;;;;5032915;28;20029;-80
2021/09/23 03:48:18;;;;;;;6.80;4.10;;;;;;;;;;5040055;28;20035;-81
2021/09/23 03:50:46;;;;;;;7.28;4.10;;;;;;;;;;5043802;28;20032;-79
2021/09/23 03:53:12;;;;;;;6.88;3.70;;;;;;;;;;5047264;28;20028;-82
2021/09/23 03:55:38;;;;;;;8.27;4.03;;;;;;;;;;5041799;28;20025;-77
2021/09/23 03:58:04;;;;;;;7.65;4.40;;;;;;;;;;5044853;28;20098;-79
2021/09/23 04:00:30;;;;;;;6.65;3.97;;;;;;;;;;5042349;28;20032;-81
2021/09/23 04:02:56;;;;;;;8.63;4.22;;;;;;;;;;5047233;28;20037;-79
2021/09/23 04:05:22;;;;;;;8.70;4.53;;;;;;;;;;5046171;28;20031;-82
2021/09/23 04:07:48;;;;;;;6.97;4.28;;;;;;;;;;5044160;28;20023;-77
2021/09/23 04:10:14;;;;;;;8.73;4.15;;;;;;;;;;5044243;28;20115;-79
2021/09/23 04:12:40;;;;;;;6.55;4.25;;;;;;;;;;5042093;28;20025;-79
2021/09/23 04:15:07;;;;;;;7.55;4.00;;;9.90;99.90;;;;;;5039406;28;20433;-79
2021/09/23 04:17:33;;;;;;;6.60;4.10;;;;;;;;;;5043353;28;20029;-79
2021/09/23 04:19:59;;;;;;;7.78;4.45;;;;;;;;;;5044059;28;20049;-80
2021/09/23 04:22:25;;;;;;;6.47;4.07;;;;;;;;;;5044943;28;20057;-78
2021/09/23 04:24:51;;;;;;;8.75;4.43;;;;;;;;;;5043645;28;20030;-80
2021/09/23 04:27:18;;;;;;;8.07;4.15;;;;;;;;;;5043685;28;21017;-77
2021/09/23 04:29:44;;;;;;;7.82;3.90;;;;;;;;;;5036609;28;20060;-77
2021/09/23 04:32:10;;;;;;;7.18;3.88;;;9.90;99.90;;;;;;5039364;28;20053;-76
2021/09/23 04:34:36;;;;;;;8.10;4.28;;;;;;;;;;5038852;28;20052;-78
2021/09/23 04:37:03;;;;;;;7.07;4.10;;;;;;;;;;5038904;28;20071;-79
2021/09/23 04:39:29;;;;;;;8.05;3.97;;;;;;;;;;5033402;28;20170;-79
2021/09/23 04:41:55;;;;;;;9.90;3.85;;;9.60;99.90;;;;;;5039601;28;20021;-78
2021/09/23 04:44:21;;;;;;;9.63;4.57;;;;;;;;;;5043721;28;20367;-78
2021/09/23 04:46:47;;;;;;;8.43;4.55;;;;;;;;;;5041097;28;20041;-79
2021/09/23 04:49:13;;;;;;;8.55;4.25;;;;;;;;;;5041592;28;20022;-80
2021/09/23 04:51:40;;;;;;;6.63;4.40;;;;;;;;;;5038853;28;20029;-77
2021/09/23 04:54:07;;;;;;;12.15;5.30;;;9.60;99.90;;;;;;5035844;28;20025;-77
2021/09/23 04:56:33;;;;;;;10.02;5.05;;;;;;;;;;5039126;28;20457;-78
2021/09/23 04:58:59;;;;;;;10.55;5.38;;;;;;;;;;5039040;28;20029;-78
2021/09/23 05:01:25;;;;;;;10.13;5.43;;;;;;;;;;5041180;28;20040;-79
2021/09/23 05:03:51;;;;;;;10.57;5.47;;;;;;;;;;5040290;28;20033;-76
2021/09/23 05:06:17;;;;;;;7.78;4.93;;;;;;;;;;5036986;28;20028;-78
2021/09/23 05:08:43;;;;;;;9.10;5.63;;;;;;;;;;5046128;28;20497;-75
2021/09/23 05:11:09;;;;;;;10.50;5.55;;;;;;;;;;5042058;28;20052;-77
2021/09/23 05:13:35;;;;;;;7.97;5.13;;;;;;;;;;5040573;28;20450;-76
2021/09/23 05:16:00;;;;;;;15.18;5.82;;;9.20;99.90;;;;;;5040440;28;20032;-77
2021/09/23 05:18:26;;;;;;;9.45;6.28;;;;;;;;;;5041258;28;21026;-78
2021/09/23 05:20:52;;;;;;;8.82;5.93;;;9.40;99.90;;;;;;5035491;28;20711;-77
2021/09/23 05:23:18;;;;;;;12.38;6.80;;;;;;;;;;5035233;28;20040;-75
2021/09/23 05:25:44;;;;;;;11.02;5.93;;;;;;;;;;5031156;28;20036;-78
2021/09/23 05:28:10;;;;;;;12.43;5.85;;;;;;;;;;5038663;28;20044;-78
2021/09/23 05:30:37;;;;;;;13.30;6.45;;;;;;;;;;5038635;28;20068;-78
2021/09/23 05:33:03;;;;;;;11.75;6.05;;;;;;;;;;5038605;28;20025;-78
2021/09/23 05:35:29;;;;;;;10.20;5.95;;;;;;;;;;5043581;28;20037;-77
2021/09/23 05:37:55;;;;;;;10.52;4.90;;;;;;;;;;5044627;28;20771;-79
2021/09/23 05:40:21;;;;;;;9.73;4.68;;;;;;;;;;5029693;28;20043;-76
2021/09/23 05:42:47;;;;;;;13.48;5.47;;;;;;;;;;5038885;28;20025;-77
2021/09/23 05:45:13;;;;;;;9.68;5.55;;;9.50;99.90;;;;;;5042854;28;20033;-78
2021/09/23 05:47:39;;;;;;;10.60;6.03;;;;;;;;;;5041241;28;20029;-77
2021/09/23 05:50:06;;;;;;;12.15;5.35;;;;;;;;;;5041694;28;20036;-78
2021/09/23 05:52:32;;;;;;;11.10;5.57;;;;;;;;;;5041412;28;20074;-78
2021/09/23 05:54:58;;;;;;;8.10;4.85;;;;;;;;;;5038178;28;20033;-77
2021/09/23 05:57:32;;;;;;;9.18;4.75;;;;;;;;;;5041042;28;20031;-78
2021/09/23 05:59:58;;;;;;;9.85;5.05;;;;;;;;;;5037386;28;20020;-78
2021/09/23 06:02:24;;;;;;;9.60;4.97;;;;;;;;;;5032648;28;20486;-77
2021/09/23 06:04:50;;;;;;;8.70;4.85;;;;;;;;;;5039984;28;20043;-79
2021/09/23 06:07:16;;;;;;;8.85;4.97;;;;;;;;;;5043945;28;20121;-78
2021/09/23 06:09:42;;;;;;;9.20;4.53;;;;;;;;;;5033842;28;20500;-80
2021/09/23 06:12:08;;;;;;;8.73;4.82;;;;;;;;;;5028345;28;20025;-78
2021/09/23 06:14:34;;;;;;;12.52;5.97;;;;;;;;;;5034352;28;20112;-80
2021/09/23 06:17:00;;;;;;;10.38;4.72;;;;;;;;;;5034847;28;20025;-78
2021/09/23 06:19:26;;;;;;;9.73;4.80;;;;;;;;;;5039464;28;20048;-78
2021/09/23 06:21:52;;;;;;;9.55;5.43;;;;;;;;;;5042103;28;20054;-80
2021/09/23 06:24:18;;;;;;;10.73;5.22;;;;;;;;;;5043116;28;20032;-79
2021/09/23 06:26:44;;;;;;;9.68;5.15;;;;;;;;;;5037046;28;20033;-78
2021/09/23 06:29:10;;;;;;;13.20;7.30;;;;;;;;;;5043387;28;20021;-75
2021/09/23 06:31:36;;;;;;;10.85;5.47;;;;;;;;;;5033282;28;20048;-78
2021/09/23 06:34:03;;;;;;;13.70;5.95;;;;;;;;;;5041143;28;20052;-81
2021/09/23 06:36:29;;;;;;;8.90;5.10;;;;;;;;;;5035207;28;20096;-78
2021/09/23 06:38:55;;;;;;;10.95;5.85;;;;;;;;;;5035661;28;20175;-79
2021/09/23 06:41:21;;;;;;;11.77;5.95;;;;;;;;;;5043083;28;20151;-76
2021/09/23 06:43:49;;;;;;;11.88;5.80;;;;;;;;;;5038360;28;20512;-79
2021/09/23 06:46:17;;;;;;;11.02;5.25;;;;;;;;;;5037721;28;20037;-76
2021/09/23 06:48:43;;;;;;;10.57;6.22;;;;;;;;;;5035513;28;20398;-80
2021/09/23 06:51:09;;;;;;;10.80;5.03;;;;;;;;;;5037439;28;20793;-78
2021/09/23 06:53:35;;;;;;;14.55;6.30;;;;;;;;;;5041828;28;20025;-80
2021/09/23 06:56:00;;;;;;;10.00;6.00;;;10.90;99.90;;;;;;5037829;28;20029;-78
2021/09/23 06:58:26;;;;;;;10.02;5.60;;;;;;;;;;5021826;28;20029;-76
2021/09/23 07:00:52;;;;;;;9.23;6.28;;;;;;;;;;5031987;28;20123;-76
2021/09/23 07:03:18;;;;;;;11.13;5.63;;;;;;;;;;5032071;28;20036;-79
2021/09/23 07:05:44;;;;;;;10.48;5.63;;;;;;;;;;5029145;28;20024;-82
2021/09/23 07:08:14;;;;;;;13.65;5.90;;;11.50;99.90;;;;;;5034657;28;20033;-78
2021/09/23 07:10:40;;;;;;;10.48;5.47;;;;;;;;;;5031413;28;20364;-78
2021/09/23 07:13:05;;;;;;;11.52;5.72;;;11.70;99.90;;;;;;5038364;28;20208;-78
2021/09/23 07:15:31;;;;;;;12.75;5.88;;;;;;;;;;5039343;28;20208;-78
2021/09/23 07:17:57;;;;;;;7.45;5.03;;;12.00;99.90;;;;;;5039387;28;20029;-76
2021/09/23 07:20:23;;;;;;;8.63;5.45;;;;;;;;;;5040756;28;20025;-76
2021/09/23 07:22:49;;;;;;;10.93;5.80;;;;;;;;;;5040804;28;20029;-77
2021/09/23 07:25:15;;;;;;;10.45;5.65;;;;;;;;;;5041830;28;20036;-80
2021/09/23 07:27:41;;;;;;;9.85;5.80;;;12.20;99.90;;;;;;5040633;28;20028;-78
2021/09/23 07:30:07;;;;;;;11.95;5.63;;;;;;;;;;5032962;28;20033;-77
2021/09/23 07:32:33;;;;;;;13.85;6.00;;;12.90;99.90;;;;;;5037917;28;20025;-78
2021/09/23 07:34:59;;;;;;;9.30;5.05;;;;;;;;;;5042402;28;20070;-78
2021/09/23 07:37:25;;;;;;;12.98;5.95;;;;;;;;;;5035280;28;20497;-77
2021/09/23 07:39:51;;;;;;;10.60;5.80;;;;;;;;;;5040165;28;20029;-77
2021/09/23 07:42:17;;;;;;;13.43;5.60;;;;;;;;;;5045398;28;20039;-80
2021/09/23 07:44:43;;;;;;;9.65;5.57;;;13.00;99.90;;;;;;5029724;28;20531;-79
2021/09/23 07:47:08;;;;;;;11.30;6.38;;;13.20;99.90;;;;;;5037350;28;20394;-80
2021/09/23 07:49:34;;;;;;;9.63;5.28;;;;;;;;;;5033356;28;20020;-82
2021/09/23 07:52:00;;;;;;;12.07;5.80;;;;;;;;;;5043362;28;20443;-80
2021/09/23 07:54:26;;;;;;;9.23;5.30;;;13.40;99.90;;;;;;5039873;28;20120;-81
2021/09/23 07:56:52;;;;;;;12.40;5.65;;;;;;;;;;5037691;28;20124;-77
2021/09/23 07:59:18;;;;;;;11.77;5.88;;;14.10;99.90;;;;;;5040280;28;20037;-78
2021/09/23 08:01:44;;;;;;;13.32;6.53;;;;;;;;;;5042919;28;20478;-80
2021/09/23 08:04:10;;;;;;;13.75;6.88;;;;;;;;;;5045137;28;20458;-75
2021/09/23 08:06:36;;;;;;;19.58;6.65;;;;;;;;;;5035940;28;20025;-78
2021/09/23 08:09:02;;;;;;;13.80;6.40;;;14.00;99.90;;;;;;5039100;28;20020;-79
2021/09/23 08:11:28;;;;;;;16.42;6.30;;;;;;;;;;5040260;28;20052;-79
2021/09/23 08:13:54;;;;;;;10.57;5.57;;;;;;;;;;5035258;28;20072;-78
2021/09/23 08:16:20;;;;;;;13.10;5.60;;;;;;;;;;5036835;28;20033;-81
2021/09/23 08:18:46;;;;;;;11.48;5.45;;;;;;;;;;5044401;28;20430;-77
2021/09/23 08:21:12;;;;;;;10.43;5.75;;;;;;;;;;5036161;28;20041;-78
2021/09/23 08:23:38;;;;;;;13.00;5.93;;;;;;;;;;5037825;28;20033;-76
2021/09/23 08:26:04;;;;;;;11.27;5.72;;;;;;;;;;5038842;28;20029;-78
2021/09/23 08:28:32;;;;;;;11.20;5.30;;;;;;;;;;5025715;28;20033;-77
2021/09/23 08:30:59;;;;;;;12.00;5.38;;;;;;;;;;5036093;28;20021;-80
2021/09/23 08:33:25;;;;;;;9.55;4.97;;;;;;;;;;5045375;28;20088;-75
2021/09/23 08:35:51;;;;;;;11.10;6.00;;;;;;;;;;5051559;28;20040;-77
2021/09/23 08:38:19;;;;;;;15.90;5.95;;;;;;;;;;5052603;28;20024;-79
2021/09/23 08:40:47;;;;;;;12.45;5.90;;;15.40;99.50;;;;;;5052273;28;20029;-80
2021/09/23 08:43:13;;;;;;;11.85;6.47;;;;;;;;;;5048020;28;20150;-78
2021/09/23 08:45:39;;;;;;;14.13;5.80;;;;;;;;;;5048530;28;20032;-78
2021/09/23 08:48:05;;;;;;;11.02;5.28;;;;;;;;;;5047604;28;20053;-77
2021/09/23 08:50:31;;;;;;;9.60;5.45;;;;;;;;;;5031125;28;20029;-75
2021/09/23 08:52:59;;;;;;;9.20;5.07;;;;;;;;;;5031664;28;20130;-78
2021/09/23 08:55:27;;;;;;;9.52;4.72;;;15.80;99.10;;;;;;5038607;28;20032;-78
2021/09/23 08:57:58;;;;;;;6.93;4.50;;;15.90;99.10;;;;;;5038065;28;20040;-78
2021/09/23 09:00:24;;;;;;;8.88;4.97;;;;;;;;;;5033445;28;20025;-76
2021/09/23 09:03:06;;;;;;;11.20;5.32;;;16.10;98.90;;;;;;5044639;28;20071;-78
2021/09/23 09:05:34;;;;;;;10.38;4.90;;;16.20;98.90;;;;;;5040975;28;20063;-79
2021/09/23 09:08:13;;;;;;;15.73;5.47;;;19.30;99.40;;;;;;5046534;28;20026;-77
2021/09/23 09:10:40;;;;;;;11.75;5.47;;;16.30;99.90;;;;;;5039733;28;20025;-76
2021/09/23 09:13:08;;;;;;;10.70;5.68;;;16.30;98.30;;;;;;5034910;28;20033;-76
2021/09/23 09:15:37;;;;;;;12.50;5.20;;;16.30;98.60;;;;;;5033900;28;20033;-77
2021/09/23 09:18:16;;;;;;;10.48;5.50;;;16.50;98.10;;;;;;5030342;28;20134;-78
2021/09/23 09:20:54;;;;;;;11.07;5.25;;;16.30;99.90;;;;;;5032429;28;20029;-78
2021/09/23 09:23:20;;;;;;;10.60;4.78;;;;;;;;;;5030277;28;20033;-76
2021/09/23 09:25:46;;;;;;;11.23;5.40;;;;;;;;;;5032912;28;21417;-77
2021/09/23 09:28:15;;;;;;;11.63;5.15;;;;;;;;;;5036526;28;20025;-78
2021/09/23 09:30:43;;;;;;;14.13;5.50;;;;;;;;;;5041778;28;20048;-77
2021/09/23 09:33:09;;;;;;;9.75;4.90;;;;;;;;;;5040552;28;20022;-76
2021/09/23 09:35:35;;;;;;;14.00;5.57;;;;;;;;;;5036587;28;20214;-76
2021/09/23 09:38:04;;;;;;;9.65;5.20;;;17.50;96.00;;;;;;5043570;28;20021;-76
2021/09/23 09:40:35;;;;;;;11.90;5.35;;;17.60;95.40;;;;;;5038957;28;20040;-77
2021/09/23 09:43:11;;;;;;;9.05;4.60;;;17.50;99.40;;;;;;5033369;28;20167;-77
2021/09/23 09:45:37;;;;;;;12.90;5.22;;;17.60;95.10;;;;;;5035114;28;20037;-79
2021/09/23 09:48:04;;;;;;;12.95;4.70;;;17.80;95.00;;;;;;5032322;28;20017;-77
2021/09/23 09:50:38;;;;;;;10.05;4.78;;;17.90;95.00;;;;;;5035678;28;20037;-79
2021/09/23 09:53:09;;;;;;;7.95;4.20;;;17.90;94.60;;;;;;5030714;28;20049;-76
2021/09/23 09:55:37;;;;;;;6.75;4.43;;;18.00;94.80;;;;;;5028067;28;20742;-77
2021/09/23 09:58:04;;;;;;;10.20;4.53;;;18.00;94.50;;;;;;5027876;28;20425;-78
2021/09/23 10:00:31;;;;;;;10.70;5.18;;;18.10;94.00;;;;;;5042487;28;20033;-77
2021/09/23 10:02:57;;;;;;;12.90;4.85;;;;;;;;;;5038837;28;20398;-78
2021/09/23 10:05:24;;;;;;;10.60;4.72;;;;;;;;;;5029164;28;20026;-77
2021/09/23 10:07:52;;;;;;;10.55;5.25;;;18.50;93.80;;;;;;5035228;28;21340;-77
2021/09/23 10:10:21;;;;;;;11.65;4.90;;;18.50;93.60;;;;;;5024158;28;20053;-76
2021/09/23 10:12:48;;;;;;;10.43;4.70;;;18.60;93.40;;;;;;5028158;28;20086;-76
2021/09/23 10:15:17;;;;;;;11.40;4.85;;;18.70;93.50;;;;;;5034413;28;20048;-78
2021/09/23 10:17:48;;;;;;;10.85;4.63;;;18.80;93.20;;;;;;5036589;28;20044;-77
2021/09/23 10:20:19;;;;;;;13.45;5.22;;;18.90;93.00;;;;;;5039280;28;20131;-77
2021/09/23 10:22:46;;;;;;;10.50;5.35;;;;;;;;;;5034185;28;20081;-77
2021/09/23 10:25:15;;;;;;;12.82;6.15;;;18.80;93.00;;;;;;5031047;28;20039;-76
2021/09/23 10:27:58;;;;;;;10.50;5.13;;;18.90;92.70;;;;;;5031154;28;20026;-80
2021/09/23 10:30:29;;;;;;;10.32;4.68;;;18.90;92.70;;;;;;5032506;28;20050;-76
2021/09/23 10:32:56;;;;;;;15.98;5.60;;;;;;;;;;5024218;28;20106;-77
2021/09/23 10:35:23;;;;;;;9.10;4.40;;;;;;;;;;5032899;28;20037;-77
2021/09/23 10:37:51;;;;;;;10.23;4.55;;;19.40;92.80;;;;;;5031950;28;20108;-78
2021/09/23 10:40:19;;;;;;;9.27;4.75;;;19.40;92.60;;;;;;5042008;28;20029;-77
2021/09/23 10:42:46;;;;;;;7.45;4.32;;;19.60;92.50;;;;;;5041887;28;20494;-77
2021/09/23 10:45:15;;;;;;;11.05;4.40;;;19.70;92.30;;;;;;5039650;28;20156;-76
2021/09/23 10:47:46;;;;;;;5.55;3.55;;;19.60;91.70;;;;;;5048195;28;20034;-77
2021/09/23 10:50:12;;;;;;;12.82;4.25;;;19.70;92.00;;;;;;5046121;28;20029;-77
2021/09/23 10:52:41;;;;;;;9.45;3.92;;;19.80;92.00;;;;;;5047162;28;20617;-77
2021/09/23 10:55:08;;;;;;;8.30;3.72;;;20.00;91.80;;;;;;5050706;28;22631;-76
2021/09/23 10:57:35;;;;;;;6.65;3.45;;;20.00;91.90;;;;;;5047505;28;20051;-77
2021/09/23 11:00:06;;;;;;;9.52;3.70;;;20.10;91.90;;;;;;5050958;28;20043;-76
2021/09/23 11:02:32;;;;;;;11.27;3.40;;;;;;;;;;5053283;28;20036;-79
2021/09/23 11:05:00;;;;;;;7.32;2.95;;;20.20;91.70;;;;;;5048681;28;20032;-78
2021/09/23 11:07:29;;;;;;;7.75;4.50;;;20.20;91.90;;;;;;5054460;28;20029;-78
2021/09/23 11:10:15;;;;;;;11.60;4.00;;;20.40;94.00;;;;;;5050536;28;20047;-77
2021/09/23 11:12:43;;;;;;;7.22;3.97;;;20.50;91.70;;;;;;5047672;28;20082;-76
2021/09/23 11:15:12;;;;;;;10.93;3.20;;;20.50;91.80;;;;;;5044195;28;20037;-76
2021/09/23 11:17:40;;;;;;;6.65;2.97;;;20.60;91.00;;;;;;5051039;28;20037;-78
2021/09/23 11:20:12;;;;;;;9.55;2.88;;;20.70;93.90;;;;;;5052349;28;20485;-77
2021/09/23 11:22:43;;;;;;;5.40;2.80;;;20.80;90.80;;;;;;5047330;28;20029;-80
2021/09/23 11:25:22;;;;;;;6.18;2.78;;;20.80;90.50;;;;;;5050808;28;20029;-75
2021/09/23 11:27:48;;;;;;;7.63;3.40;;;20.80;90.10;;;;;;5047079;28;20437;-77
2021/09/23 11:30:17;;;;;;;7.10;3.25;;;20.90;90.00;;;;;;5046519;28;20025;-78
2021/09/23 11:32:57;;;;;;;6.05;2.88;;;20.90;90.10;;;;;;5050922;28;20035;-77
2021/09/23 11:35:26;;;;;;;5.20;2.65;;;20.90;90.10;;;;;;5032316;28;20040;-77
2021/09/23 11:37:53;;;;;;;6.97;2.78;;;20.90;89.90;;;;;;5052596;28;20029;-76
2021/09/23 11:40:25;;;;;;;7.30;3.20;;;21.00;89.90;;;;;;5045496;28;20064;-77
2021/09/23 11:42:51;;;;;;;6.32;2.72;;;;;;;;;;5044566;28;20112;-77
2021/09/23 11:45:19;;;;;;;6.63;2.97;;;20.90;90.00;;;;;;5043779;28;20110;-77
2021/09/23 11:47:53;;;;;;;5.30;2.75;;;21.10;93.60;;;;;;5052219;28;20021;-78
2021/09/23 11:50:39;;;;;;;4.88;3.08;;;21.20;90.20;;;;;;5052234;28;20028;-78
2021/09/23 11:53:22;;;;;;;5.78;3.22;;;21.30;90.10;;;;;;5046573;28;20494;-76
2021/09/23 11:56:00;;;;;;;6.35;3.03;;;21.50;89.30;;;;;;5048633;28;20033;-77
2021/09/23 11:58:27;;;;;;;5.47;2.75;;;21.50;88.60;;;;;;5050002;28;20051;-78
2021/09/23 12:00:53;;;;;;;5.20;2.95;;;;;;;;;;5050467;28;20028;-77
2021/09/23 12:03:21;;;;;;;5.80;2.90;;;21.40;87.50;;;;;;5051109;28;20036;-78
2021/09/23 12:05:48;;;;;;;4.82;3.10;;;21.40;88.00;;;;;;5044041;28;20505;-78
2021/09/23 12:08:22;;;;;;;4.15;2.67;;;21.50;93.00;;;;;;5040457;28;20112;-78
2021/09/23 12:10:56;;;;;;;11.32;2.92;;;21.70;92.60;;;;;;5042157;28;20017;-78
2021/09/23 12:13:35;;;;;;;5.20;3.00;;;21.70;87.70;;;;;;5042378;28;20570;-78
2021/09/23 12:16:07;;;;;;;8.63;3.45;;;21.80;87.40;;;;;;5041369;28;20517;-79
2021/09/23 12:18:33;;;;;;;10.27;4.30;;;21.90;87.50;;;;;;5045307;28;20072;-78
2021/09/23 12:21:07;;;;;;;5.25;3.78;;;21.80;86.70;;;;;;5040952;28;20037;-77
2021/09/23 12:23:42;;;;;;;6.10;3.38;;;21.90;92.60;;;;;;5046178;28;20022;-77
2021/09/23 12:26:25;;;;;;;6.75;3.50;;;22.00;86.90;;;;;;5041231;28;20135;-77
2021/09/23 12:28:57;;;;;;;7.60;2.97;;;22.10;92.50;;;;;;5038668;28;20030;-77
2021/09/23 12:31:28;;;;;;;6.80;2.95;;;22.10;86.70;;;;;;5041390;28;20104;-77
2021/09/23 12:33:56;;;;;;;5.60;2.97;;;22.10;86.90;;;;;;5044217;28;20525;-77
2021/09/23 12:36:34;;;;;;;6.78;3.30;;;22.10;87.10;;;;;;5041075;28;20111;-77
2021/09/23 12:39:17;;;;;;;5.85;3.47;;;22.00;86.40;;;;;;5043851;28;20096;-77
2021/09/23 12:41:51;;;;;;;6.90;3.42;;;22.20;89.10;;;;;;5039833;28;20029;-77
2021/09/23 12:44:19;;;;;;;5.40;3.25;;;22.10;86.50;;;;;;5036581;28;20733;-77
2021/09/23 12:47:00;;;;;;;10.15;3.28;;;22.10;85.70;;;;;;5042051;28;20026;-78
2021/09/23 12:49:26;;;;;;;5.25;2.55;;;;;;;;;;5041615;28;20030;-78
2021/09/23 12:51:52;;;;;;;5.43;2.60;;;;;;;;;;5036262;28;20276;-75
2021/09/23 12:54:23;;;;;;;3.22;2.40;;;22.30;84.10;;;;;;5050339;28;20017;-77
2021/09/23 12:57:01;;;;;;;4.45;2.55;;;22.30;84.00;;;;;;5050781;28;20059;-77
2021/09/23 12:59:32;;;;;;;4.07;2.80;;;22.30;84.00;;;;;;5052393;28;20025;-77
2021/09/23 13:02:11;;;;;;;5.25;2.67;;;;;;;;;;5049728;28;20020;-76
2021/09/23 13:04:37;;;;;;;5.13;2.60;;;;;;;;;;5048844;28;20036;-78
2021/09/23 13:07:20;;;;;;;3.70;2.30;;;22.50;84.70;;;;;;5048627;28;20374;-78
2021/09/23 13:10:28;;;;;;;3.22;2.13;;;22.50;84.80;;;;;;5050809;28;20029;-77
2021/09/23 13:12:58;;;;;;;3.95;2.08;;;22.40;86.80;;;;;;5031817;28;20037;-77
2021/09/23 13:15:24;;;;;;;3.65;2.08;;;;;;;;;;5043445;28;20032;-77
2021/09/23 13:18:10;;;;;;;5.53;3.05;;;22.50;78.80;;;;;;5055265;28;20021;-78
2021/09/23 13:20:44;;;;;;;3.38;2.20;;;22.60;80.30;;;;;;5049258;28;20482;-78
2021/09/23 13:23:17;;;;;;;4.32;2.60;;;22.60;79.30;;;;;;5046964;28;20021;-79
2021/09/23 13:25:44;;;;;;;7.75;2.10;;;22.70;79.70;;;;;;5046980;28;20044;-77
2021/09/23 13:28:19;;;;;;;5.00;2.80;;;22.80;80.50;;;;;;5050300;28;20021;-77
2021/09/23 13:30:45;;;;;;;3.50;2.28;;;;;;;;;;5058135;28;20390;-79
2021/09/23 13:33:11;;;;;;;5.38;1.92;;;;;;;;;;5043919;28;20254;-78
2021/09/23 13:35:37;;;;;;;4.18;1.90;;;;;;;;;;5047127;28;20055;-79
2021/09/23 13:38:04;;;;;;;5.05;2.30;;;;;;;;;;5047073;28;20735;-79
2021/09/23 13:40:30;;;;;;;3.15;1.98;;;;;;;;;;5041515;28;20029;-79
2021/09/23 13:42:56;;;;;;;4.55;2.03;;;;;;;;;;5045584;28;20037;-78
2021/09/23 13:45:22;;;;;;;3.10;1.77;;;;;;;;;;5046126;28;20034;-81
2021/09/23 13:47:49;;;;;;;3.20;2.10;;;;;;;;;;5040402;28;20652;-78
2021/09/23 13:50:15;;;;;;;4.10;2.00;;;;;;;;;;5046206;28;20108;-77
2021/09/23 13:52:42;;;;;;;5.20;2.22;;;;;;;;;;5051924;28;20025;-78
2021/09/23 13:55:08;;;;;;;3.35;2.17;;;;;;;;;;5045621;28;20033;-78